Mount Rainier National Park, WA

6:51 AM PDT on September 29, 2016 (GMT -0700)
Ashford | | Change Station

Elev 1935 ft 46.74 °N, 121.97 °W | Updated 12 seconds ago

Overcast
Overcast
42.6 °F
Feels Like 43 °F
N
0.0
Wind Variable Wind from SE

Today
High -- | Low -- °F
--% Chance of Precip.
Yesterday
High -- | Low -- °F
Precip. -- in
Pressure 30.08 in
Visibility -9999.0 miles
Clouds Overcast 100 ft
Windchill 43 °F
Dew Point 42 °F
Humidity 99%
Rainfall 0.00 in
Snow Depth Not available.
7:04 AM 6:49 PM
Waning Crescent, 2% visible
METAR KSMP 291256Z AUTO 23005KT OVC001 07/06 A3004 RMK AO2 SLP184 T00720056 $
Pressure 30.08 in
Visibility -9999.0 miles
Clouds Overcast 100 ft
Windchill 43 °F
Dew Point 42 °F
Humidity 99%
Rainfall 0.00 in
Snow Depth Not available.
7:04 AM 6:49 PM
Waning Crescent, 2% visible
METAR KSMP 291256Z AUTO 23005KT OVC001 07/06 A3004 RMK AO2 SLP184 T00720056 $

10-Day Weather Forecast

Almanac

Astronomy

Sep. 29, 2016 Rise Set
Actual Time
Civil Twilight
Nautical Twilight
Astronomical Twilight
Moon
Length of Visible Light
Length of Day
Tomorrow will be .
, % of the Moon is Illuminated

Today's Extremes

State Highs State Lows

Community

WunderPhotos

Upload Photos

1,942,470 photos uploaded!

WunderBlog® & News

Nearby

Air Quality

  Air Quality AQ Index Pollutant
Not available.

Snow Depth

Station Depth Elevation

Earthquake Activity

City Distance Mag. Time & Date
Minimum magnitude displayed is 2.5.

Coastal Water Temperatures

Place Temperature

Stations

Nearby Weather Stations

Station Location Temp. Windchill Dew Point Humidity Wind Precip. Elev Updated Type
                   

Watches & Warnings

There are currently no watches in effect.